Time;durP1;ratioP1;P1;durP2;ratioP2;P2;SDS_P1;SDS_P2;PMS_P1;PMS_P2;Temp;Humidity;BMP_temperature;BMP_pressure;BME280_temperature;BME280_humidity;BME280_pressure;Samples;Min_cycle;Max_cycle;Signal;HPM_P1;HPM_P2
2022/09/30 00:01:04;;;;;;;12.15;8.55;;;;;;;;;;5041193;28;20026;-82
2022/09/30 00:03:35;;;;;;;14.45;8.57;;;;;;;;;;5040337;28;20499;-83
2022/09/30 00:06:13;;;;;;;12.93;8.57;;;;;;;;;;5038125;28;20025;-83
2022/09/30 00:08:54;;;;;;;13.10;9.15;;;;;;;;;;5022988;28;20101;-82
2022/09/30 00:11:29;;;;;;;11.30;8.75;;;;;;;;;;5024598;28;20033;-82
2022/09/30 00:13:58;;;;;;;13.43;8.13;;;;;;;;;;5043778;28;20033;-82
2022/09/30 00:16:34;;;;;;;10.02;8.07;;;;;;;;;;5024807;28;20045;-82
2022/09/30 00:19:02;;;;;;;12.63;8.32;;;;;;;;;;5025358;28;20026;-83
2022/09/30 00:21:36;;;;;;;13.02;8.60;;;;;;;;;;5045333;28;20037;-82
2022/09/30 00:24:03;;;;;;;15.32;8.63;;;;;;;;;;5042426;28;20024;-82
2022/09/30 00:26:32;;;;;;;12.43;8.68;;;;;;;;;;5044920;28;20018;-82
2022/09/30 00:29:07;;;;;;;11.55;7.85;;;;;;;;;;5049481;28;20025;-82
2022/09/30 00:31:34;;;;;;;11.00;8.45;;;;;;;;;;5032258;28;20025;-83
2022/09/30 00:34:06;;;;;;;20.10;10.73;;;;;;;;;;5049133;28;20056;-83
2022/09/30 00:36:33;;;;;;;16.85;9.85;;;;;;;;;;5032252;28;20037;-84
2022/09/30 00:38:59;;;;;;;14.07;10.43;;;;;;;;;;5051241;28;20025;-84
2022/09/30 00:41:28;;;;;;;21.77;13.95;;;;;;;;;;5047956;28;20022;-84
2022/09/30 00:43:57;;;;;;;23.85;14.27;;;;;;;;;;5048299;28;20029;-82
2022/09/30 00:46:34;;;;;;;23.92;14.38;;;;;;;;;;5040590;28;20025;-85
2022/09/30 00:49:02;;;;;;;20.08;14.38;;;;;;;;;;5043432;28;20535;-84
2022/09/30 00:51:51;;;;;;;23.60;14.38;;;;;;;;;;5044000;28;20394;-84
2022/09/30 00:57:33;;;;;;;21.00;14.15;;;;;;;;;;5039780;28;20025;-82
2022/09/30 00:59:59;;;;;;;24.92;14.50;;;;;;;;;;5048254;28;20021;-79
2022/09/30 01:02:25;;;;;;;23.70;13.55;;;;;;;;;;5047552;28;20041;-83
2022/09/30 01:04:53;;;;;;;21.25;14.73;;;;;;;;;;5030637;28;20025;-83
2022/09/30 01:07:20;;;;;;;20.50;14.05;;;;;;;;;;5050218;28;20052;-83
2022/09/30 01:09:47;;;;;;;21.60;13.40;;;;;;;;;;5049351;28;20025;-83
2022/09/30 01:12:20;;;;;;;21.30;13.27;;;;;;;;;;5031504;28;20025;-82
2022/09/30 01:14:52;;;;;;;18.45;12.98;;;;;;;;;;5054801;28;20090;-83
2022/09/30 01:17:27;;;;;;;19.88;12.25;;;;;;;;;;5055063;28;20028;-83
2022/09/30 01:20:11;;;;;;;16.42;11.60;;;;;;;;;;5050098;28;20056;-84
2022/09/30 01:22:40;;;;;;;17.75;12.48;;;;;;;;;;5024294;28;20026;-84
2022/09/30 01:25:27;;;;;;;20.55;11.80;;;;;;;;;;5042861;28;20038;-84
2022/09/30 01:28:08;;;;;;;15.52;11.40;;;;;;;;;;5052394;28;20029;-83
2022/09/30 01:34:24;;;;;;;;;;;;;;;;;;;;;
2022/09/30 01:45:02;;;;;;;14.88;10.70;;;;;;;;;;4077900;22;20490;-83
2022/09/30 01:47:41;;;;;;;18.57;10.97;;;;;;;;;;4997494;28;20026;-82
2022/09/30 01:50:23;;;;;;;16.80;11.63;;;;;;;;;;5051820;28;20040;-85
2022/09/30 01:53:10;;;;;;;15.68;11.25;;;;;;;;;;5032325;28;20009;-85
2022/09/30 01:55:51;;;;;;;15.95;10.90;;;;;;;;;;5041750;28;20095;-85
2022/09/30 01:58:25;;;;;;;16.30;11.98;;;;;;;;;;5029282;28;20025;-81
2022/09/30 02:04:13;;;;;;;13.80;10.07;;;;;;;;;;5018203;28;20117;-83
2022/09/30 02:07:11;;;;;;;18.00;11.80;;;;;;;;;;5010865;28;20026;-82
2022/09/30 02:09:50;;;;;;;23.23;13.07;;;;;;;;;;5005595;28;20085;-82
2022/09/30 02:12:19;;;;;;;17.48;11.65;;;;;;;;;;5009253;28;20483;-83
2022/09/30 02:15:00;;;;;;;19.40;12.15;;;;;;;;;;5021550;28;20040;-83
2022/09/30 02:17:32;;;;;;;15.57;11.53;;;;;;;;;;5017208;28;20037;-83
2022/09/30 02:20:19;;;;;;;21.60;12.35;;;;;;;;;;5033419;28;20021;-83
2022/09/30 02:22:49;;;;;;;17.13;10.60;;;;;;;;;;5030738;28;20033;-83
2022/09/30 02:25:20;;;;;;;19.02;10.55;;;;;;;;;;5022286;28;20038;-84
2022/09/30 02:27:56;;;;;;;15.90;10.52;;;;;;;;;;5054389;23;20125;-82
2022/09/30 02:30:36;;;;;;;13.25;9.70;;;;;;;;;;5015525;28;20021;-81
2022/09/30 02:33:32;;;;;;;13.77;10.10;;;;;;;;;;5012956;28;20072;-81
2022/09/30 02:36:20;;;;;;;12.85;10.05;;;;;;;;;;4999996;28;20064;-83
2022/09/30 02:38:49;;;;;;;14.93;9.85;;;;;;;;;;5007746;28;20022;-82
2022/09/30 02:41:45;;;;;;;;;;;;;;;;;;;;;
2022/09/30 02:50:26;;;;;;;14.85;10.15;;;;;;;;;;4982923;28;20037;-82
2022/09/30 02:53:03;;;;;;;15.25;9.32;;;;;;;;;;5027548;28;20029;-83
2022/09/30 02:55:51;;;;;;;13.07;9.80;;;;;;;;;;5012698;28;20033;-83
2022/09/30 02:58:20;;;;;;;17.33;9.70;;;;;;;;;;5028357;28;20029;-84
2022/09/30 03:01:00;;;;;;;;;;;;;;;;;;;;;
2022/09/30 03:03:29;;;;;;;14.75;9.00;;;;;;;;;;5021368;28;20044;-81
2022/09/30 03:05:55;;;;;;;17.63;9.10;;;;;;;;;;5028893;28;20038;-83
2022/09/30 03:08:21;;;;;;;11.95;9.30;;;;;;;;;;5011500;28;20022;-83
2022/09/30 03:10:51;;;;;;;15.18;9.43;;;;;;;;;;5009537;28;20026;-82
2022/09/30 03:13:33;;;;;;;13.35;9.10;;;;;;;;;;5032901;28;20026;-82
2022/09/30 03:16:20;;;;;;;11.00;8.50;;;;;;;;;;5044245;22;21387;-82
2022/09/30 03:19:08;;;;;;;14.68;8.85;;;;;;;;;;4975587;28;20032;-83
2022/09/30 03:22:10;;;;;;;14.70;9.25;;;;;;;;;;4990091;28;20027;-84
2022/09/30 03:24:36;;;;;;;;;;;;;;;;;;4990852;28;20046;-83
2022/09/30 03:30:24;;;;;;;12.45;8.98;;;;;;;;;;5017717;28;20498;-83
2022/09/30 03:38:52;;;;;;;12.65;9.00;;;;;;;;;;5057388;28;20041;-84
2022/09/30 03:42:07;;;;;;;;;;;;;;;;;;;;;
2022/09/30 03:44:48;;;;;;;15.68;10.10;;;;;;;;;;4948277;29;20448;-84
2022/09/30 03:50:15;;;;;;;19.25;12.68;;;;;;;;;;5047127;22;20116;-80
2022/09/30 03:52:41;;;;;;;14.85;9.95;;;;;;;;;;5050749;28;20025;-77
2022/09/30 03:55:10;;;;;;;15.63;10.80;;;;;;;;;;5046949;28;20105;-76
2022/09/30 03:57:36;;;;;;;15.30;10.20;;;;;;;;;;5017027;28;20057;-76
2022/09/30 04:00:03;;;;;;;14.98;9.23;;;;;;;;;;5028643;28;20025;-75
2022/09/30 04:02:29;;;;;;;13.88;9.52;;;;;;;;;;5026682;28;20021;-75
2022/09/30 04:04:55;;;;;;;12.90;9.07;;;;;;;;;;5001293;28;20072;-75
2022/09/30 04:07:21;;;;;;;11.13;9.23;;;;;;;;;;5014819;28;20127;-75
2022/09/30 04:09:47;;;;;;;14.38;8.88;;;;;;;;;;5025669;28;20018;-76
2022/09/30 04:12:13;;;;;;;14.23;9.18;;;;;;;;;;5016806;28;20392;-75
2022/09/30 04:14:39;;;;;;;12.57;9.23;;;;;;;;;;5020675;28;20009;-75
2022/09/30 04:17:05;;;;;;;11.07;8.43;;;;;;;;;;4997061;28;20072;-76
2022/09/30 04:19:36;;;;;;;12.52;8.38;;;;;;;;;;5006886;28;20025;-77
2022/09/30 04:22:03;;;;;;;16.88;10.23;;;;;;;;;;5024554;28;20045;-77
2022/09/30 04:24:29;;;;;;;12.48;9.55;;;;;;;;;;5022154;28;20021;-77
2022/09/30 04:26:55;;;;;;;14.20;9.57;;;;;;;;;;4997152;28;20079;-76
2022/09/30 04:29:21;;;;;;;12.93;9.18;;;;;;;;;;5016431;28;20096;-76
2022/09/30 04:31:47;;;;;;;12.55;9.20;;;;;;;;;;5022593;28;20029;-76
2022/09/30 04:34:13;;;;;;;13.38;9.15;;;;;;;;;;5032649;28;20379;-76
2022/09/30 04:36:39;;;;;;;14.07;9.35;;;;;;;;;;4997336;28;20017;-76
2022/09/30 04:39:05;;;;;;;11.90;9.02;;;;;;;;;;5005223;28;20029;-76
2022/09/30 04:41:32;;;;;;;16.38;10.10;;;;;;;;;;5023875;28;20033;-76
2022/09/30 04:43:59;;;;;;;14.18;9.15;;;;;;;;;;5019837;28;20379;-76
2022/09/30 04:46:25;;;;;;;13.68;9.32;;;;;;;;;;5002657;28;20080;-76
2022/09/30 04:48:51;;;;;;;15.10;10.40;;;;;;;;;;5023252;28;20440;-76
2022/09/30 04:51:18;;;;;;;15.00;9.70;;;;;;;;;;4989885;28;20037;-75
2022/09/30 04:53:45;;;;;;;13.90;9.93;;;;;;;;;;4999111;28;20030;-76
2022/09/30 04:56:11;;;;;;;14.40;10.02;;;;;;;;;;4997577;28;20112;-76
2022/09/30 04:58:37;;;;;;;15.70;10.60;;;;;;;;;;5016083;28;20084;-76
2022/09/30 05:01:07;;;;;;;15.55;11.05;;;;;;;;;;5021460;28;20116;-76
2022/09/30 05:03:34;;;;;;;16.30;10.98;;;;;;;;;;5024950;28;20132;-75
2022/09/30 05:06:00;;;;;;;16.88;12.00;;;;;;;;;;4998446;28;20029;-77
2022/09/30 05:08:26;;;;;;;18.98;11.77;;;;;;;;;;5013772;28;20491;-75
2022/09/30 05:10:56;;;;;;;19.23;12.15;;;;;;;;;;5025032;28;20032;-75
2022/09/30 05:13:22;;;;;;;15.65;11.88;;;;;;;;;;5009835;28;20057;-75
2022/09/30 05:15:48;;;;;;;16.65;11.13;;;;;;;;;;5009430;28;20101;-77
2022/09/30 05:18:15;;;;;;;17.65;12.00;;;;;;;;;;5018562;28;20041;-76
2022/09/30 05:20:41;;;;;;;18.02;11.35;;;;;;;;;;5027127;28;20018;-76
2022/09/30 05:23:08;;;;;;;21.48;12.18;;;;;;;;;;5027557;28;20461;-75
2022/09/30 05:25:34;;;;;;;19.00;11.93;;;;;;;;;;4997189;28;20037;-75
2022/09/30 05:28:01;;;;;;;19.55;11.80;;;;;;;;;;5012563;28;20026;-75
2022/09/30 05:30:27;;;;;;;17.08;12.48;;;;;;;;;;4999606;28;20025;-75
2022/09/30 05:32:53;;;;;;;17.48;11.65;;;;;;;;;;5023474;28;20030;-76
2022/09/30 05:35:19;;;;;;;20.00;12.52;;;;;;;;;;5023285;28;20209;-75
2022/09/30 05:37:45;;;;;;;18.88;12.48;;;;;;;;;;5012208;28;20030;-76
2022/09/30 05:40:11;;;;;;;16.88;12.02;;;;;;;;;;5008033;28;20022;-76
2022/09/30 05:42:37;;;;;;;16.83;11.80;;;;;;;;;;5023837;28;20032;-76
2022/09/30 05:45:05;;;;;;;16.40;11.27;;;;;;;;;;5021104;28;20021;-76
2022/09/30 05:47:31;;;;;;;16.08;11.07;;;;;;;;;;5018736;28;20026;-76
2022/09/30 05:49:57;;;;;;;14.65;11.05;;;;;;;;;;4983783;28;1146516;-76
2022/09/30 05:52:23;;;;;;;18.38;11.77;;;;;;;;;;5024682;28;20025;-76
2022/09/30 05:54:49;;;;;;;18.10;12.32;;;;;;;;;;5017380;28;20028;-76
2022/09/30 05:57:16;;;;;;;16.55;11.65;;;;;;;;;;5012445;28;20026;-76
2022/09/30 05:59:42;;;;;;;17.50;12.45;;;;;;;;;;5014774;28;20503;-75
2022/09/30 06:02:08;;;;;;;16.70;10.80;;;;;;;;;;5022807;28;20034;-75
2022/09/30 06:04:34;;;;;;;14.27;10.15;;;;;;;;;;5027614;28;20013;-75
2022/09/30 06:07:00;;;;;;;21.52;9.80;;;;;;;;;;5016786;28;20080;-75
2022/09/30 06:09:26;;;;;;;12.60;8.52;;;;;;;;;;5008357;28;20367;-75
2022/09/30 06:11:54;;;;;;;11.45;8.15;;;;;;;;;;5026155;28;20037;-76
2022/09/30 06:14:21;;;;;;;13.18;7.72;;;;;;;;;;5004108;28;20506;-76
2022/09/30 06:16:48;;;;;;;14.48;7.85;;;;;;;;;;5003297;28;20032;-76
2022/09/30 06:19:14;;;;;;;12.13;7.63;;;;;;;;;;5029615;28;20029;-75
2022/09/30 06:21:40;;;;;;;10.13;7.53;;;;;;;;;;5021572;28;20014;-75
2022/09/30 06:24:11;;;;;;;12.82;7.65;;;;;;;;;;5020132;28;20144;-76
2022/09/30 06:26:37;;;;;;;;;;;;;;;;;;4996504;28;20531;-75
2022/09/30 06:29:05;;;;;;;10.18;7.03;;;;;;;;;;5014503;28;19913;-75
2022/09/30 06:31:31;;;;;;;13.98;7.97;;;;;;;;;;5020364;28;20061;-75
2022/09/30 06:33:57;;;;;;;16.17;7.53;;;;;;;;;;5028190;28;20060;-75
2022/09/30 06:36:23;;;;;;;13.98;6.82;;;;;;;;;;4997645;28;20018;-75
2022/09/30 06:38:53;;;;;;;12.63;7.13;;;;;;;;;;5000982;28;20062;-75
2022/09/30 06:41:19;;;;;;;15.23;7.68;;;;;;;;;;5006106;28;20025;-75
2022/09/30 06:43:45;;;;;;;15.65;7.30;;;;;;;;;;5017065;28;20049;-74
2022/09/30 06:46:12;;;;;;;10.73;6.43;;;;;;;;;;5013813;28;20032;-74
2022/09/30 06:48:39;;;;;;;13.55;7.22;;;;;;;;;;5015118;28;20025;-75
2022/09/30 06:51:08;;;;;;;12.23;7.38;;;;;;;;;;5005749;28;20033;-76
2022/09/30 06:53:35;;;;;;;10.07;6.72;;;;;;;;;;4998097;28;20022;-75
2022/09/30 06:56:01;;;;;;;11.20;6.28;;;;;;;;;;5023233;28;20369;-75
2022/09/30 06:58:27;;;;;;;11.55;6.90;;;;;;;;;;5028415;28;20101;-74
2022/09/30 07:01:01;;;;;;;11.55;6.30;;;;;;;;;;4993153;28;20037;-75
2022/09/30 07:03:31;;;;;;;12.63;6.75;;;;;;;;;;4994257;28;20018;-76
2022/09/30 07:05:58;;;;;;;8.90;6.55;;;;;;;;;;5001650;28;20046;-75
2022/09/30 07:08:30;;;;;;;11.23;7.60;;;;;;;;;;5018512;28;20492;-75
2022/09/30 07:10:56;;;;;;;9.15;7.00;;;;;;;;;;4993106;28;20060;-75
2022/09/30 07:13:25;;;;;;;15.10;7.05;;;;;;;;;;5005130;28;20017;-74
2022/09/30 07:15:53;;;;;;;11.18;6.60;;;;;;;;;;5018153;28;20030;-75
2022/09/30 07:18:19;;;;;;;10.23;6.95;;;;;;;;;;4993570;28;20120;-75
2022/09/30 07:20:52;;;;;;;10.38;5.97;;;;;;;;;;4992970;28;20373;-74
2022/09/30 07:23:24;;;;;;;11.23;6.78;;;;;;;;;;4992299;28;20484;-75
2022/09/30 07:25:52;;;;;;;10.73;6.47;;;;;;;;;;4992496;28;20022;-75
2022/09/30 07:28:19;;;;;;;14.48;6.70;;;;;;;;;;5014712;28;20053;-76
2022/09/30 07:30:46;;;;;;;10.05;5.88;;;;;;;;;;5011295;28;20017;-75
2022/09/30 07:33:15;;;;;;;12.80;6.55;;;;;;;;;;5029218;28;20022;-74
2022/09/30 07:35:42;;;;;;;9.80;6.68;;;;;;;;;;5012764;28;20025;-75
2022/09/30 07:38:09;;;;;;;11.25;6.82;;;;;;;;;;5029782;28;20506;-76
2022/09/30 07:40:38;;;;;;;10.38;6.70;;;;;;;;;;5030380;28;20029;-76
2022/09/30 07:43:04;;;;;;;10.85;7.03;;;;;;;;;;5031379;28;20126;-75
2022/09/30 07:45:30;;;;;;;12.88;7.47;;;;;;;;;;5031362;28;20028;-75
2022/09/30 07:47:57;;;;;;;13.45;7.63;;;;;;;;;;5030727;28;20025;-75
2022/09/30 07:50:23;;;;;;;14.15;8.45;;;;;;;;;;5013111;28;20791;-75
2022/09/30 07:52:49;;;;;;;11.90;7.95;;;;;;;;;;5014293;28;20117;-75
2022/09/30 07:55:15;;;;;;;12.95;7.65;;;;;;;;;;5034912;28;20030;-75
2022/09/30 07:57:41;;;;;;;15.23;7.78;;;;;;;;;;5017005;28;20169;-75
2022/09/30 08:00:08;;;;;;;13.20;8.40;;;;;;;;;;5020545;28;20072;-75
2022/09/30 08:02:34;;;;;;;12.93;7.85;;;;;;;;;;5015673;28;20041;-75
2022/09/30 08:05:00;;;;;;;14.23;8.05;;;;;;;;;;5015839;28;20030;-75
2022/09/30 08:07:26;;;;;;;15.90;8.35;;;;;;;;;;5016538;28;20026;-74
2022/09/30 08:09:52;;;;;;;16.50;7.72;;;;;;;;;;5035126;28;20083;-75
2022/09/30 08:12:18;;;;;;;11.35;7.55;;;;;;;;;;5036096;28;20025;-76
2022/09/30 08:14:44;;;;;;;14.07;7.53;;;;;;;;;;5033709;28;20021;-77
2022/09/30 08:17:10;;;;;;;16.08;6.63;;;;;;;;;;5034324;28;20381;-76
2022/09/30 08:19:37;;;;;;;11.55;7.82;;;;;;;;;;5000221;28;20100;-76
2022/09/30 08:22:03;;;;;;;11.10;7.45;;;;;;;;;;5023034;28;20018;-76
2022/09/30 08:24:29;;;;;;;17.13;7.70;;;;;;;;;;5032556;28;20028;-75
2022/09/30 08:26:55;;;;;;;11.82;7.00;;;;;;;;;;5014287;28;20018;-76
2022/09/30 08:29:21;;;;;;;10.82;7.43;;;;;;;;;;4996433;28;20037;-75
2022/09/30 08:31:47;;;;;;;16.25;7.45;;;;;;;;;;5014529;28;20022;-76
2022/09/30 08:34:13;;;;;;;11.90;7.03;;;;;;;;;;5014319;28;20037;-77
2022/09/30 08:36:40;;;;;;;12.82;6.85;;;;;;;;;;4996603;28;20030;-77
2022/09/30 08:39:06;;;;;;;8.98;7.22;;;;;;;;;;5012422;28;20029;-77
2022/09/30 08:41:50;;;;;;;14.68;7.35;;;;;;;;;;5014034;28;20014;-78
2022/09/30 08:44:25;;;;;;;14.85;7.40;;;;;;;;;;5008858;28;20093;-76
2022/09/30 08:46:59;;;;;;;11.63;6.72;;;;;;;;;;4982026;28;20042;-78
2022/09/30 08:49:44;;;;;;;13.02;7.13;;;;;;;;;;5012052;28;20541;-77
2022/09/30 08:52:12;;;;;;;12.65;6.53;;;;;;;;;;5012143;28;20045;-77
2022/09/30 08:54:39;;;;;;;11.68;7.00;;;;;;;;;;5027925;28;20067;-79
2022/09/30 08:57:05;;;;;;;12.88;6.30;;;;;;;;;;5014700;28;20112;-78
2022/09/30 08:59:44;;;;;;;12.82;7.40;;;;;;;;;;5013751;28;20029;-78
2022/09/30 09:02:13;;;;;;;15.88;6.63;;;;;;;;;;5033354;28;20053;-77
2022/09/30 09:04:42;;;;;;;14.10;6.75;;;;;;;;;;5033043;28;20115;-77
2022/09/30 09:07:14;;;;;;;11.13;7.32;;;;;;;;;;5014986;28;20025;-78
2022/09/30 09:09:43;;;;;;;12.07;6.32;;;;;;;;;;5032961;28;20040;-77
2022/09/30 09:12:21;;;;;;;11.15;6.05;;;;;;;;;;5033426;28;20052;-77
2022/09/30 09:15:08;;;;;;;13.88;6.55;;;;;;;;;;5015989;28;20472;-77
2022/09/30 09:17:54;;;;;;;10.50;6.85;;;;;;;;;;5013648;28;20435;-77
2022/09/30 09:20:22;;;;;;;13.70;5.75;;;;;;;;;;5002259;28;20041;-77
2022/09/30 09:22:52;;;;;;;8.85;5.60;;;;;;;;;;4995699;28;20467;-77
2022/09/30 09:25:20;;;;;;;8.77;5.32;;;;;;;;;;5012623;28;20105;-76
2022/09/30 09:27:49;;;;;;;7.32;5.53;;;;;;;;;;5009042;28;20021;-77
2022/09/30 09:30:18;;;;;;;9.55;6.07;;;;;;;;;;5003122;28;20021;-77
2022/09/30 09:33:07;;;;;;;10.50;5.20;;;;;;;;;;5032673;28;20037;-77
2022/09/30 09:35:41;;;;;;;7.55;4.63;;;;;;;;;;5021806;28;20045;-77
2022/09/30 09:38:25;;;;;;;7.28;4.47;;;;;;;;;;5013052;28;20033;-76
2022/09/30 09:41:09;;;;;;;7.20;4.70;;;;;;;;;;5013090;28;20021;-76
2022/09/30 09:43:42;;;;;;;9.25;4.82;;;;;;;;;;5001091;28;20022;-77
2022/09/30 09:46:16;;;;;;;6.35;4.63;;;;;;;;;;4995152;28;20110;-77
2022/09/30 09:48:45;;;;;;;4.85;3.75;;;;;;;;;;4995281;28;20061;-76
2022/09/30 09:51:23;;;;;;;5.28;3.75;;;;;;;;;;5036381;22;20065;-83
2022/09/30 09:54:13;;;;;;;7.47;3.67;;;;;;;;;;5001349;28;20023;-82
2022/09/30 09:56:39;;;;;;;6.18;2.97;;;;;;;;;;4979277;28;20088;-83
2022/09/30 09:59:20;;;;;;;3.60;2.78;;;;;;;;;;4999114;28;20042;-81
2022/09/30 10:01:48;;;;;;;7.22;3.95;;;;;;;;;;4983138;28;20034;-82
2022/09/30 10:04:17;;;;;;;4.97;2.75;;;;;;;;;;4985258;28;20109;-82
2022/09/30 10:06:52;;;;;;;8.05;3.40;;;;;;;;;;5002549;28;20050;-79
2022/09/30 10:09:33;;;;;;;4.13;3.58;;;;;;;;;;5001283;28;20034;-84
2022/09/30 10:12:21;;;;;;;4.93;3.83;;;;;;;;;;4987170;28;20026;-82
2022/09/30 10:14:59;;;;;;;5.07;3.58;;;;;;;;;;4983580;28;20033;-81
2022/09/30 10:20:27;;;;;;;8.10;4.05;;;;;;;;;;4988946;28;20026;-83
2022/09/30 10:23:12;;;;;;;6.25;3.60;;;;;;;;;;4982602;28;20018;-80
2022/09/30 10:25:56;;;;;;;7.45;3.83;;;;;;;;;;4985117;28;20041;-82
2022/09/30 10:35:20;;;;;;;9.60;3.70;;;;;;;;;;4970029;28;20084;-79
2022/09/30 10:37:51;;;;;;;7.63;4.05;;;;;;;;;;4974460;28;20069;-79
2022/09/30 10:40:17;;;;;;;7.78;3.88;;;;;;;;;;4976732;28;20085;-79
2022/09/30 10:42:53;;;;;;;6.82;3.97;;;;;;;;;;4977774;28;20026;-79
2022/09/30 10:45:24;;;;;;;5.40;4.22;;;;;;;;;;4984889;28;20488;-80
2022/09/30 10:47:53;;;;;;;6.60;3.40;;;;;;;;;;4997537;28;20105;-80
2022/09/30 10:50:25;;;;;;;7.95;4.05;;;;;;;;;;4980633;28;20141;-80
2022/09/30 10:52:58;;;;;;;5.50;3.90;;;;;;;;;;4984772;28;20488;-75
2022/09/30 10:55:33;;;;;;;4.80;3.42;;;;;;;;;;4977256;28;20080;-79
2022/09/30 10:58:22;;;;;;;3.53;2.70;;;;;;;;;;4986306;28;20073;-79
2022/09/30 11:01:05;;;;;;;4.40;2.85;;;;;;;;;;4953701;28;20038;-79
2022/09/30 11:03:36;;;;;;;7.18;3.10;;;;;;;;;;4983099;28;20082;-79
2022/09/30 11:06:03;;;;;;;3.85;3.05;;;;;;;;;;4978571;28;20312;-80
2022/09/30 11:08:47;;;;;;;4.90;3.00;;;;;;;;;;4975264;28;20097;-76
2022/09/30 11:11:15;;;;;;;2.60;2.35;;;;;;;;;;4976196;28;20030;-79
2022/09/30 11:13:56;;;;;;;4.00;2.40;;;;;;;;;;4994230;28;20027;-78
2022/09/30 11:16:33;;;;;;;5.88;2.83;;;;;;;;;;4990233;28;20422;-79
2022/09/30 11:19:06;;;;;;;3.28;2.50;;;;;;;;;;4972595;28;20062;-78
2022/09/30 11:21:42;;;;;;;4.22;2.75;;;;;;;;;;4975148;28;20027;-77
2022/09/30 11:24:17;;;;;;;3.95;2.75;;;;;;;;;;4975246;28;20480;-78
2022/09/30 11:26:51;;;;;;;4.65;2.78;;;;;;;;;;4975577;28;20045;-80
2022/09/30 11:29:17;;;;;;;3.97;2.67;;;;;;;;;;4976499;28;20117;-80
2022/09/30 11:31:54;;;;;;;5.15;2.22;;;;;;;;;;4978652;28;20057;-79
2022/09/30 11:34:23;;;;;;;4.88;3.25;;;;;;;;;;4997227;28;20030;-80
2022/09/30 11:36:58;;;;;;;7.35;3.20;;;;;;;;;;4978551;28;20084;-79
2022/09/30 11:39:44;;;;;;;8.00;3.20;;;;;;;;;;4978644;28;20031;-79
2022/09/30 11:42:13;;;;;;;6.55;3.42;;;;;;;;;;4981395;28;20077;-77
2022/09/30 11:44:41;;;;;;;6.10;3.00;;;;;;;;;;4997201;28;20027;-78
2022/09/30 11:47:26;;;;;;;3.85;2.70;;;;;;;;;;4997032;28;20031;-77
2022/09/30 11:50:16;;;;;;;5.45;2.35;;;;;;;;;;4980641;28;20038;-78
2022/09/30 11:52:53;;;;;;;3.42;2.50;;;;;;;;;;4991357;28;20460;-79
2022/09/30 11:55:38;;;;;;;3.97;2.03;;;;;;;;;;4979582;28;20022;-77
2022/09/30 11:58:12;;;;;;;5.88;2.35;;;;;;;;;;4978434;28;20023;-78
2022/09/30 12:00:40;;;;;;;5.78;1.98;;;;;;;;;;4998527;28;20465;-77
2022/09/30 12:03:09;;;;;;;3.05;1.67;;;;;;;;;;5001831;28;20029;-79
2022/09/30 12:05:46;;;;;;;6.63;2.17;;;;;;;;;;4988521;28;20015;-83
2022/09/30 12:08:14;;;;;;;5.22;2.10;;;;;;;;;;5020062;28;20046;-83
2022/09/30 12:11:07;;;;;;;2.22;2.03;;;;;;;;;;5010028;23;20018;-84
2022/09/30 12:13:36;;;;;;;3.05;1.60;;;;;;;;;;4989357;28;20156;-80
2022/09/30 12:16:03;;;;;;;1.90;1.70;;;;;;;;;;4982968;28;20029;-80
2022/09/30 12:18:32;;;;;;;3.47;2.05;;;;;;;;;;4997697;28;20023;-80
2022/09/30 12:21:09;;;;;;;4.20;1.85;;;;;;;;;;5011133;28;20030;-79
2022/09/30 12:23:46;;;;;;;10.63;1.80;;;;;;;;;;5011325;28;20030;-77
2022/09/30 12:26:13;;;;;;;2.70;1.90;;;;;;;;;;5011740;28;20104;-79
2022/09/30 12:31:42;;;;;;;2.78;2.00;;;;;;;;;;4995072;28;20030;-79
2022/09/30 12:34:11;;;;;;;4.97;1.60;;;;;;;;;;4995561;28;20030;-79
2022/09/30 12:36:38;;;;;;;4.88;1.95;;;;;;;;;;4997181;28;20027;-80
2022/09/30 12:39:27;;;;;;;3.35;1.98;;;;;;;;;;4980061;28;20037;-80
2022/09/30 12:42:06;;;;;;;10.52;2.05;;;;;;;;;;4994425;28;20628;-79
2022/09/30 12:44:48;;;;;;;3.05;1.65;;;;;;;;;;5011597;28;20121;-76
2022/09/30 12:47:22;;;;;;;3.13;1.65;;;;;;;;;;4997049;28;20106;-78
2022/09/30 12:49:48;;;;;;;3.40;1.80;;;;;;;;;;5002368;28;20443;-80
2022/09/30 12:52:21;;;;;;;2.60;1.77;;;;;;;;;;5006661;28;20638;-80
2022/09/30 12:54:49;;;;;;;1.98;1.70;;;;;;;;;;4997591;28;20026;-80
2022/09/30 12:57:19;;;;;;;3.63;1.52;;;;;;;;;;5007899;28;20028;-80
2022/09/30 12:59:51;;;;;;;3.25;1.77;;;;;;;;;;5004505;28;20034;-80
2022/09/30 13:02:38;;;;;;;5.07;1.55;;;;;;;;;;4995603;28;20045;-79
2022/09/30 13:05:23;;;;;;;2.08;1.55;;;;;;;;;;4995041;28;20023;-79
2022/09/30 13:08:09;;;;;;;3.85;1.50;;;;;;;;;;5010234;28;20388;-81
2022/09/30 13:10:38;;;;;;;2.15;1.73;;;;;;;;;;4995972;28;20039;-80
2022/09/30 13:13:10;;;;;;;1.75;1.60;;;;;;;;;;4999453;28;20085;-80
2022/09/30 13:15:36;;;;;;;2.60;1.30;;;;;;;;;;5006830;28;20033;-79
2022/09/30 13:18:25;;;;;;;2.97;1.70;;;;;;;;;;4995375;28;20477;-79
2022/09/30 13:20:59;;;;;;;2.97;1.63;;;;;;;;;;4994910;28;20023;-79
2022/09/30 13:23:39;;;;;;;3.00;1.80;;;;;;;;;;5000667;28;20052;-77
2022/09/30 13:26:26;;;;;;;2.20;1.52;;;;;;;;;;4982248;28;20026;-79
2022/09/30 13:28:53;;;;;;;4.35;1.60;;;;;;;;;;4973046;28;20042;-76
2022/09/30 13:31:23;;;;;;;2.38;1.60;;;;;;;;;;4976963;28;20492;-76
2022/09/30 13:34:01;;;;;;;5.22;1.70;;;;;;;;;;4994796;28;20092;-79
2022/09/30 13:36:32;;;;;;;2.95;1.90;;;;;;;;;;4994145;28;20500;-79
2022/09/30 13:39:16;;;;;;;4.23;1.90;;;;;;;;;;4994808;28;20037;-79
2022/09/30 13:41:43;;;;;;;6.05;1.83;;;;;;;;;;4999942;28;20033;-78
2022/09/30 13:44:14;;;;;;;2.45;1.67;;;;;;;;;;5001576;28;20031;-79
2022/09/30 13:46:47;;;;;;;2.30;1.92;;;;;;;;;;5007410;28;20029;-77
2022/09/30 13:49:23;;;;;;;2.38;1.60;;;;;;;;;;4994102;28;20041;-79
2022/09/30 13:51:49;;;;;;;3.60;1.77;;;;;;;;;;4993721;28;20018;-77
2022/09/30 13:54:36;;;;;;;3.63;1.58;;;;;;;;;;4978553;28;20030;-79
2022/09/30 13:57:14;;;;;;;2.25;1.27;;;;;;;;;;4984847;28;20023;-79
2022/09/30 13:59:43;;;;;;;3.10;1.58;;;;;;;;;;4984086;28;20030;-79
2022/09/30 14:02:27;;;;;;;5.90;2.00;;;;;;;;;;4993949;28;20026;-78
2022/09/30 14:05:03;;;;;;;2.25;1.67;;;;;;;;;;5002994;28;20088;-81
2022/09/30 14:07:46;;;;;;;3.20;1.83;;;;;;;;;;4993802;28;20028;-79
2022/09/30 14:10:31;;;;;;;3.10;1.85;;;;;;;;;;5003162;28;20385;-80
2022/09/30 14:13:15;;;;;;;2.05;1.67;;;;;;;;;;4999012;28;20026;-79
2022/09/30 14:15:41;;;;;;;2.45;1.67;;;;;;;;;;5000312;28;20022;-80
2022/09/30 14:18:16;;;;;;;2.40;1.67;;;;;;;;;;5000296;28;20119;-77
2022/09/30 14:20:45;;;;;;;2.03;1.70;;;;;;;;;;5002593;28;20109;-77
2022/09/30 14:23:14;;;;;;;2.45;1.77;;;;;;;;;;4993280;28;20018;-79
2022/09/30 14:25:44;;;;;;;3.53;1.65;;;;;;;;;;4986502;28;20026;-80
2022/09/30 14:28:15;;;;;;;4.38;2.13;;;;;;;;;;4994794;28;20022;-79
2022/09/30 14:31:28;;;;;;;2.03;1.77;;;;;;;;;;4993560;28;20034;-77
2022/09/30 14:33:30;;;;;;;1.75;1.60;;;;;;;;;;4988758;28;20026;-80
2022/09/30 14:36:06;;;;;;;1.80;1.70;;;;;;;;;;4993859;28;20076;-79
2022/09/30 14:38:32;;;;;;;7.20;1.80;;;;;;;;;;5002332;28;20086;-78
2022/09/30 14:41:05;;;;;;;4.80;1.58;;;;;;;;;;5001313;28;20018;-77
2022/09/30 14:43:34;;;;;;;2.15;1.60;;;;;;;;;;4979076;28;20034;-77
2022/09/30 14:46:20;;;;;;;2.35;1.90;;;;;;;;;;4994263;28;20024;-77
2022/09/30 14:48:49;;;;;;;2.20;1.60;;;;;;;;;;4997880;28;20041;-77
2022/09/30 14:51:16;;;;;;;3.05;2.08;;;;;;;;;;4989002;28;20030;-79
2022/09/30 14:53:53;;;;;;;3.33;1.98;;;;;;;;;;5008497;28;20109;-81
2022/09/30 14:56:29;;;;;;;2.72;2.08;;;;;;;;;;5010878;28;20025;-81
2022/09/30 14:58:58;;;;;;;2.97;1.73;;;;;;;;;;5000094;28;20480;-80
2022/09/30 15:01:24;;;;;;;2.72;1.63;;;;;;;;;;4984881;28;20054;-79
2022/09/30 15:04:03;;;;;;;6.28;2.00;;;;;;;;;;5005624;28;20052;-80
2022/09/30 15:06:30;;;;;;;3.85;1.48;;;;;;;;;;4994599;28;20017;-79
2022/09/30 15:09:06;;;;;;;2.78;1.70;;;;;;;;;;4988146;28;20036;-80
2022/09/30 15:11:32;;;;;;;1.70;1.48;;;;;;;;;;4995487;28;20034;-80
2022/09/30 15:14:07;;;;;;;2.95;1.50;;;;;;;;;;4989770;28;20054;-80
2022/09/30 15:16:33;;;;;;;1.73;1.30;;;;;;;;;;4997004;28;20120;-79
2022/09/30 15:18:59;;;;;;;3.35;1.50;;;;;;;;;;5009864;28;20022;-80
2022/09/30 15:21:26;;;;;;;3.60;1.92;;;;;;;;;;4996385;28;20029;-80
2022/09/30 15:23:54;;;;;;;3.58;1.90;;;;;;;;;;4992073;28;20030;-81
2022/09/30 15:26:21;;;;;;;7.50;2.17;;;;;;;;;;5001890;28;20033;-80
2022/09/30 15:28:47;;;;;;;1.88;1.42;;;;;;;;;;4999881;28;20034;-78
2022/09/30 15:31:25;;;;;;;2.22;1.63;;;;;;;;;;4987775;28;20084;-79
2022/09/30 15:34:10;;;;;;;1.85;1.45;;;;;;;;;;4988208;28;20031;-80
2022/09/30 15:36:37;;;;;;;4.25;1.92;;;;;;;;;;5026354;28;20026;-78
2022/09/30 15:39:04;;;;;;;2.47;2.10;;;;;;;;;;5021088;28;20037;-80
2022/09/30 15:41:37;;;;;;;3.63;2.22;;;;;;;;;;4992400;28;20030;-80
2022/09/30 15:44:03;;;;;;;4.97;2.85;;;;;;;;;;4987909;28;20018;-79
2022/09/30 15:46:30;;;;;;;5.57;3.20;;;;;;;;;;5001882;28;20068;-80
2022/09/30 15:49:00;;;;;;;6.63;4.07;;;;;;;;;;5007487;28;20046;-81
2022/09/30 15:51:31;;;;;;;7.03;3.90;;;;;;;;;;4993095;28;20396;-80
2022/09/30 15:53:59;;;;;;;6.60;2.90;;;;;;;;;;5005181;28;20039;-80